Meriden, Minnesota
Current Conditions -  °F | °C
As of 7:14 AM on Thursday 30 Oct 2014 (Local Time) from KACQ Reporting Station
Overcast Overcast  
Wind Chill: 37°   Ceiling: 8500
Heat Index: 37°   Visibility: 10mi
Dew Point: 32°   Wind: 3mph
Humidity: 81%   Direction: 110°ESE
Pressure: 30.05"   Gusts: NA
Location:  44.0806°N, 93.5062°W
Report Text: KACQ 301214Z AUTO 11003KT 10SM OVC085 03/00 A3005 RMK AO2
Loading
Personal Weather Stations






























Interactive Weather Map
Tropical Storm Tracking
New forecast layout! Learn more

10-Day Weather Forecast

Advertisements
Track Severe Weather on mobile